Etusivu
METAR-TAF:

METAR-TAF

Lentoasemat :

Tuxtla Gutiérrez, Meksiko

Leveyspiiri: 16-45N, Pituuspiiri: 093-07W, korkeus merenpinnasta: 528 m

Tämänhetkinen sää

Tämä raportti tehtiin 5 tuntia ja 9 minuuttia sitten, kello 04.42 UTC
Tuuli 4 kn lännestä/luoteesta
Lämpötila 24°C
Kosteus 65%
Ilmanpaine 1014 hPa
Näkyvyys: 16.1 km
selkeää

METAR: MMTG 250442Z 30004KT 10SM SKC 24/17 A2994 RMK HZY ISOLD AC

Aika: 03:51 (09:51 UTC)

Sääennuste

Tämä raportti tehtiin 5 tuntia ja 42 minuuttia sitten, kello 04.09 UTC
Ennuste voimassa 25. päivästä klo 06 UTC - 26. päivään klo 06 UTC
Tuuli 5 kn lännestä/lounaasta
Näkyvyys: 10 km
selkeää
From 25. päivästä klo 1700 UTC
Tuuli 12 kn lännestä/luoteesta
Näkyvyys: 10 km
Hajanaisia pilviä 3000 ft:n korkeudessa
From 26. päivästä klo 0200 UTC
Tuuli 5 kn lännestä/luoteesta
Näkyvyys: 10 km
selkeää

TAF: MMTG 250409Z 2506/2606 25005KT P6SM SKC FM251700 30012KT P6SM SCT030 FM260200 30005KT P6SM SKC

Säähavainnot ja -ennusteet yli 4000 lentoasemalta (METAR- ja TAF-raportit).

Käytössä olevat sääasemat on merkitty karttaan keltaisilla ja punaisilla pisteillä.

Aseta hiiri pisteen päälle nähdäksesi sääaseman nimen.

Klikkaa sitten nähdäksesi säähavainnot ja -ennusteet.

Kartan vaihtaminen: klikkaa mustalla rastilla varustettuja vihreitä pisteitä, niin voit zoomata sisään; viivalla varustettua vihreää pistettä, niin voit zoomata ulos tai vihreitä nuolia, niin pääset viereisille kartoille.


METAR-TAF: